Latest Weather Observations for Jandakot

IDW60901

Issued at 8:31 pm WST Monday 27 March 2017 (issued every 10 minutes, with the page automatically refreshed every 10 minutes)

About weather observations | Map of Perth area stations | Latest observations for Perth area | Other Formats
Station Details ID: 009172 Name: JANDAKOT AERO Lat: -32.10 Lon: 115.88 Height: 30.0 m
Data from the previous 72 hours. | See also: Recent months at Jandakot
Date/Time
WST
Temp
°C
App
Temp
°C
Dew
Point
°C
Rel
Hum
%
Delta-T
°C
Wind Press
QNH
hPa
Press
MSL
hPa
Rain since
9am
mm
Dir  Spd
km/h
Gust
km/h
Spd
kts
Gust
kts
27/08:30pm 16.2 13.4 9.9 66 3.3 S 15 19 8 10 1020.0 1019.9 0.0
27/08:00pm 16.6 13.4 9.9 64 3.5 S 17 20 9 11 1019.7 1019.6 0.0
27/07:30pm 17.0 13.7 9.7 62 3.8 S 17 24 9 13 1019.5 1019.4 0.0
27/07:00pm 17.7 13.8 9.5 58 4.3 S 20 24 11 13 1019.3 1019.2 0.0
27/06:30pm 18.4 14.1 9.5 56 4.7 S 22 30 12 16 1019.4 1019.3 0.0
27/06:00pm 19.2 14.9 9.3 52 5.2 S 22 30 12 16 1019.2 1019.1 0.0
27/05:30pm 20.0 15.6 9.0 49 5.8 SSW 22 30 12 16 1019.3 1019.2 0.0
27/05:00pm 21.0 16.0 8.1 43 6.7 S 24 33 13 18 1019.2 1019.1 0.0
27/04:30pm 21.8 16.7 7.5 39 7.4 S 24 33 13 18 1019.5 1019.4 0.0
27/04:00pm 22.1 17.6 7.1 38 7.7 S 20 26 11 14 1019.8 1019.7 0.0
27/03:30pm 22.8 18.4 6.6 35 8.3 S 19 24 10 13 1020.2 1020.1 0.0
27/03:00pm 22.5 18.4 6.4 35 8.2 SSW 17 26 9 14 1020.3 1020.2 0.0
27/02:30pm 22.2 17.7 7.0 37 7.8 S 20 32 11 17 1020.4 1020.3 0.0
27/02:00pm 21.7 17.0 6.2 36 7.8 SSW 20 35 11 19 1020.9 1020.8 0.0
27/01:30pm 21.5 16.8 6.2 37 7.7 WSW 20 28 11 15 1021.3 1021.2 0.0
27/01:00pm 21.2 17.1 6.3 38 7.5 WSW 17 30 9 16 1021.9 1021.8 0.0
27/12:30pm 21.1 17.5 5.0 35 7.9 SSW 13 19 7 10 1022.3 1022.2 0.0
27/12:00pm 20.8 18.4 5.1 35 7.7 SSE 7 17 4 9 1022.8 1022.7 0.0
27/11:30am 19.7 16.3 3.9 35 7.5 SSE 11 19 6 10 1023.1 1023.0 0.0
27/11:00am 19.4 16.5 4.6 37 7.1 S 9 15 5 8 1023.5 1023.4 0.0
27/10:30am 19.1 16.6 5.0 39 6.8 SW 7 11 4 6 1023.8 1023.7 0.0
27/10:00am 19.0 16.4 6.0 42 6.4 SSE 9 11 5 6 1023.9 1023.8 0.0
27/09:30am 17.9 15.8 6.6 47 5.6 NNE 7 11 4 6 1024.2 1024.1 0.0
27/09:00am 16.9 15.3 8.0 55 4.5 E 6 9 3 5 1024.1 1024.0 0.0
27/08:30am 15.0 14.7 8.7 66 3.2 CALM 0 4 0 2 1024.1 1024.0 0.0
27/08:00am 12.7 12.2 8.0 73 2.3 CALM 0 2 0 1 1023.9 1023.8 0.0
27/07:30am 10.2 8.5 7.7 84 1.2 E 6 7 3 4 1023.9 1023.8 0.0
27/07:00am 7.3 5.2 6.0 91 0.6 E 6 7 3 4 1023.6 1023.5 0.0
27/06:30am 6.4 5.3 5.0 91 0.6 CALM 0 0 0 0 1023.4 1023.3 0.0
27/06:00am 6.7 4.3 5.1 89 0.7 E 7 7 4 4 1023.0 1022.9 0.0
27/05:30am 6.8 5.7 5.0 88 0.8 CALM 0 0 0 0 1022.8 1022.7 0.0
27/05:00am 6.8 5.6 4.7 86 0.9 CALM 0 0 0 0 1022.4 1022.3 0.0
27/04:30am 8.1 7.2 5.9 86 1.0 CALM 0 0 0 0 1022.1 1022.0 0.0
27/04:00am 8.5 7.0 6.8 89 0.8 ENE 4 6 2 3 1021.7 1021.6 0.0
27/03:30am 8.4 7.3 6.9 90 0.7 ENE 2 6 1 3 1021.4 1021.3 0.0
27/03:00am 8.0 5.9 5.8 86 1.0 E 6 6 3 3 1021.2 1021.1 0.0
27/02:30am 8.2 6.0 5.5 83 1.2 E 6 7 3 4 1021.3 1021.2 0.0
27/02:00am 8.7 6.4 5.6 81 1.4 ESE 7 9 4 5 1021.3 1021.2 0.0
27/01:30am 8.6 6.0 6.0 84 1.2 ESE 9 9 5 5 1021.4 1021.3 0.0
27/01:00am 9.3 7.1 6.3 81 1.4 ESE 7 7 4 4 1021.3 1021.2 0.0
27/12:30am 10.1 8.1 6.9 80 1.5 SSE 7 9 4 5 1021.3 1021.2 0.0
27/12:00am 10.5 8.6 6.9 78 1.7 SSE 6 9 3 5 1021.1 1021.0 0.0
 
Date/Time
WST
Temp
°C
App
Temp
°C
Dew
Point
°C
Rel
Hum
%
Delta-T
°C
Wind Press
QNH
hPa
Press
MSL
hPa
Rain since
9am
mm
Dir  Spd
km/h
Gust
km/h
Spd
kts
Gust
kts
26/11:30pm 10.9 8.5 6.9 76 1.9 SSE 9 9 5 5 1021.0 1020.9 0.0
26/11:00pm 12.5 10.2 7.6 72 2.4 SSE 9 11 5 6 1020.7 1020.6 0.0
26/10:30pm 13.0 10.8 7.7 70 2.6 SSE 9 11 5 6 1020.6 1020.5 0.0
26/10:00pm 14.2 11.6 7.7 65 3.2 SSE 11 17 6 9 1020.5 1020.4 0.0
26/09:30pm 15.3 11.9 7.6 60 3.8 S 15 17 8 9 1020.2 1020.1 0.0
26/09:00pm 16.3 12.8 7.2 55 4.5 S 15 20 8 11 1020.1 1020.0 0.0
26/08:30pm 16.8 14.0 6.9 52 4.9 S 11 15 6 8 1019.9 1019.8 0.0
26/08:00pm 16.6 13.8 6.9 52 4.8 SSW 11 13 6 7 1019.6 1019.5 0.0
26/07:30pm 17.2 13.1 6.4 49 5.3 SSW 17 24 9 13 1019.3 1019.2 0.0
26/07:00pm 17.6 13.6 6.7 48 5.4 SSW 17 22 9 12 1018.8 1018.7 0.0
26/06:30pm 17.8 12.7 7.5 51 5.2 SSW 24 33 13 18 1018.3 1018.2 0.0
26/06:00pm 18.2 13.0 7.3 49 5.5 SSW 24 33 13 18 1017.9 1017.8 0.0
26/05:30pm 18.9 12.6 5.9 42 6.4 SW 28 39 15 21 1017.6 1017.5 0.0
26/05:00pm 19.3 11.7 3.9 36 7.3 SW 33 46 18 25 1017.3 1017.2 0.0
26/04:44pm 19.9 13.0 6.3 41 6.8 SW 32 50 17 27 1017.2 1017.1 0.0
26/04:30pm 19.8 12.4 6.9 43 6.5 SW 35 50 19 27 1017.0 1016.9 0.0
26/04:00pm 20.2 13.1 8.0 45 6.3 SW 35 48 19 26 1016.5 1016.4 0.0
26/03:30pm 20.5 13.1 6.9 41 6.9 SW 35 52 19 28 1016.3 1016.2 0.0
26/03:00pm 20.7 13.4 7.2 41 6.9 SW 35 48 19 26 1016.1 1016.0 0.0
26/02:53pm 21.0 14.4 7.9 43 6.8 SW 32 50 17 27 1016.0 1015.9 0.0
26/02:30pm 20.6 13.3 8.8 46 6.2 SW 37 52 20 28 1016.0 1015.9 0.0
26/02:22pm 20.7 14.0 8.2 44 6.5 SW 33 52 18 28 1015.9 1015.8 0.0
26/02:00pm 19.9 13.4 8.9 49 5.8 SW 33 46 18 25 1015.9 1015.8 0.0
26/01:30pm 20.6 13.7 8.8 46 6.2 SW 35 46 19 25 1015.9 1015.8 0.0
26/01:04pm 21.7 14.6 8.1 41 7.1 WSW 35 54 19 29 1015.7 1015.6 0.0
26/01:00pm 21.3 13.8 6.5 38 7.5 SW 35 52 19 28 1015.7 1015.6 0.0
26/12:30pm 21.7 14.8 7.4 39 7.4 SW 33 44 18 24 1015.6 1015.5 0.0
26/12:00pm 21.7 14.9 7.6 40 7.3 WSW 33 54 18 29 1015.4 1015.3 0.0
26/11:39am 21.1 13.9 7.5 41 7.0 SW 35 54 19 29 1015.3 1015.2 0.0
26/11:30am 20.9 13.4 8.0 43 6.7 WSW 37 50 20 27 1015.1 1015.0 0.0
26/11:00am 21.3 13.3 5.9 36 7.7 WSW 37 57 20 31 1015.0 1014.9 0.0
26/10:48am 21.0 13.7 7.1 40 7.1 WSW 35 59 19 32 1014.8 1014.7 0.0
26/10:30am 20.7 13.7 8.5 45 6.4 SW 35 50 19 27 1014.7 1014.6 0.0
26/10:00am 20.2 13.7 10.2 52 5.4 WSW 35 50 19 27 1014.5 1014.4 0.0
26/09:30am 20.7 13.8 8.7 46 6.3 WSW 35 54 19 29 1014.1 1014.0 0.0
26/09:24am 20.3 13.2 7.9 44 6.4 WSW 35 54 19 29 1013.9 1013.8 0.0
26/09:00am 19.9 13.4 8.1 46 6.1 WSW 32 44 17 24 1013.6 1013.5 1.2
26/08:30am 19.5 13.5 10.2 55 5.0 WSW 32 46 17 25 1013.0 1012.9 1.2
26/08:27am 19.4 14.0 9.4 52 5.3 WSW 28 46 15 25 1013.0 1012.9 1.2
26/08:00am 18.7 13.4 11.2 61 4.1 WSW 30 43 16 23 1012.8 1012.7 1.2
26/07:30am 17.8 14.8 13.8 77 2.3 WSW 22 33 12 18 1012.5 1012.4 1.2
26/07:00am 17.4 13.7 13.9 80 2.0 WSW 26 41 14 22 1012.1 1012.0 1.2
26/06:30am 17.1 13.0 13.8 81 1.9 WSW 28 39 15 21 1011.4 1011.3 1.2
26/06:12am 16.8 12.5 14.5 86 1.3 WSW 30 41 16 22 1011.2 1011.1 1.2
26/06:00am 16.7 11.8 15.3 91 0.8 SW 35 50 19 27 1011.0 1010.9 1.2
26/05:56am 16.8 12.5 15.4 91 0.8 SW 32 50 17 27 1010.9 1010.8 1.0
26/05:54am 17.1 13.7 15.9 93 0.7 SW 28 50 15 27 1010.8 1010.7 1.0
26/05:30am 17.9 15.5 15.3 85 1.5 W 22 30 12 16 1010.3 1010.2 0.6
26/05:00am 18.1 13.6 16.3 89 1.1 W 35 61 19 33 1010.1 1010.0 0.4
26/04:54am 19.3 15.8 15.4 78 2.3 WNW 28 59 15 32 1010.0 1009.9 0.0
26/04:30am 19.4 16.6 14.4 73 2.9 WNW 22 32 12 17 1009.7 1009.6 0.0
26/04:00am 18.8 16.4 14.5 76 2.5 WNW 20 26 11 14 1009.6 1009.5 0.0
26/03:30am 19.5 16.8 13.6 68 3.4 WNW 20 35 11 19 1009.8 1009.7 0.0
26/03:00am 19.5 16.6 12.8 65 3.8 WNW 20 30 11 16 1009.9 1009.8 0.0
26/02:30am 18.9 15.7 11.9 64 3.9 WNW 20 28 11 15 1009.9 1009.8 0.0
26/02:00am 18.7 15.8 12.4 67 3.5 W 19 24 10 13 1009.8 1009.7 0.0
26/01:30am 18.7 16.0 11.8 64 3.8 W 17 22 9 12 1009.8 1009.7 0.0
26/01:00am 19.1 16.7 12.5 65 3.7 W 17 20 9 11 1009.8 1009.7 0.0
26/12:30am 19.8 17.6 13.3 66 3.7 W 17 26 9 14 1010.0 1009.9 0.0
26/12:00am 19.8 16.4 13.7 68 3.5 W 24 33 13 18 1010.1 1010.0 0.0
 
Date/Time
WST
Temp
°C
App
Temp
°C
Dew
Point
°C
Rel
Hum
%
Delta-T
°C
Wind Press
QNH
hPa
Press
MSL
hPa
Rain since
9am
mm
Dir  Spd
km/h
Gust
km/h
Spd
kts
Gust
kts
25/11:30pm 19.8 17.6 15.0 74 2.8 W 20 28 11 15 1010.1 1010.0 0.0
25/11:00pm 19.4 18.6 16.1 81 2.0 WSW 15 20 8 11 1010.2 1010.1 0.0
25/10:30pm 19.8 18.2 16.5 81 2.0 WSW 20 28 11 15 1010.2 1010.1 0.0
25/10:00pm 17.6 19.0 16.3 92 0.8 WNW 4 13 2 7 1010.5 1010.4 0.0
25/09:30pm 16.7 18.4 15.2 91 0.9 CALM 0 0 0 0 1010.4 1010.3 0.0
25/09:00pm 16.0 17.5 14.6 91 0.8 CALM 0 0 0 0 1010.1 1010.0 0.0
25/08:30pm 17.4 19.2 15.4 88 1.2 CALM 0 0 0 0 1010.3 1010.2 0.0
25/08:00pm 18.4 19.0 15.7 84 1.6 SW 7 11 4 6 1010.3 1010.2 0.0
25/07:30pm 18.8 18.6 15.6 82 1.9 WSW 11 13 6 7 1010.0 1009.9 0.0
25/07:00pm 19.6 18.5 15.4 77 2.5 WSW 15 19 8 10 1009.7 1009.6 0.0
25/06:30pm 20.3 19.1 15.0 71 3.1 SW 15 20 8 11 1009.6 1009.5 0.0
25/06:00pm 21.6 19.2 14.3 63 4.3 SW 20 28 11 15 1009.5 1009.4 0.0
25/05:30pm 22.6 19.0 13.1 55 5.5 SW 24 32 13 17 1009.2 1009.1 0.0
25/05:00pm 23.2 20.7 14.0 56 5.4 WSW 20 26 11 14 1009.0 1008.8 0.0
25/04:30pm 23.8 21.5 14.7 56 5.4 WSW 20 26 11 14 1008.8 1008.6 0.0
25/04:00pm 24.2 22.5 14.6 55 5.7 WSW 17 22 9 12 1008.8 1008.6 0.0
25/03:30pm 24.4 22.5 15.7 58 5.3 WSW 20 26 11 14 1009.0 1008.8 0.0
25/03:00pm 24.5 22.1 15.4 57 5.5 WSW 22 28 12 15 1009.2 1009.1 0.0
25/02:30pm 24.1 22.0 15.1 57 5.4 W 20 26 11 14 1009.5 1009.4 0.0
25/02:00pm 24.9 22.8 15.1 54 5.9 WSW 20 26 11 14 1009.8 1009.7 0.0
25/01:30pm 24.7 22.6 15.2 55 5.7 SW 20 28 11 15 1010.1 1010.0 0.0
25/01:00pm 24.8 22.2 15.0 54 5.9 WSW 22 30 12 16 1010.4 1010.3 0.0
25/12:30pm 25.3 22.7 14.8 52 6.3 WSW 22 30 12 16 1010.8 1010.7 0.0
25/12:00pm 25.7 25.4 14.5 50 6.7 WNW 9 20 5 11 1010.9 1010.8 0.0
25/11:30am 25.5 25.3 13.6 47 7.0 N 7 13 4 7 1011.5 1011.4 0.0
25/11:00am 25.1 25.1 14.1 50 6.5 NNW 7 13 4 7 1011.8 1011.7 0.0
25/10:30am 23.9 23.4 13.8 53 5.9 NNE 9 13 5 7 1012.3 1012.2 0.0
25/10:00am 23.4 22.5 13.8 54 5.6 E 11 15 6 8 1012.5 1012.4 0.0
25/09:30am 21.8 20.9 13.7 60 4.7 E 11 17 6 9 1012.6 1012.5 0.0
25/09:00am 21.2 20.3 13.8 62 4.3 E 11 15 6 8 1012.9 1012.8 0.0
25/08:30am 20.0 18.3 13.7 67 3.6 E 15 19 8 10 1012.8 1012.7 0.0
25/08:00am 18.8 16.4 13.7 72 2.9 E 19 26 10 14 1013.1 1013.0 0.0
25/07:30am 17.8 16.2 13.8 77 2.3 E 15 24 8 13 1013.1 1013.0 0.0
25/07:00am 16.3 15.4 13.8 85 1.4 ESE 11 13 6 7 1013.1 1013.0 0.0
25/06:30am 15.4 14.8 13.4 88 1.1 E 9 15 5 8 1013.1 1013.0 0.0
25/06:00am 15.8 14.4 13.3 85 1.4 ESE 13 15 7 8 1013.1 1013.0 0.0
25/05:30am 15.9 14.2 13.6 86 1.3 E 15 19 8 10 1012.8 1012.7 0.0
25/05:00am 15.9 14.1 13.4 85 1.4 ESE 15 20 8 11 1012.9 1012.8 0.0
25/04:30am 16.4 15.1 13.6 83 1.6 E 13 20 7 11 1013.0 1012.9 0.0
25/04:00am 16.7 14.6 13.7 82 1.7 E 17 24 9 13 1013.0 1012.9 0.0
25/03:30am 16.9 14.8 13.7 81 1.8 E 17 22 9 12 1013.0 1012.9 0.0
25/03:00am 16.9 14.8 13.5 80 1.9 E 17 22 9 12 1013.2 1013.1 0.0
25/02:30am 17.1 15.0 13.6 80 2.0 ESE 17 24 9 13 1013.1 1013.0 0.0
25/02:00am 17.1 15.4 13.6 80 2.0 ESE 15 24 8 13 1013.2 1013.1 0.0
25/01:30am 16.1 15.7 13.0 82 1.7 E 7 17 4 9 1013.2 1013.1 0.0
25/01:00am 15.5 15.2 12.8 84 1.5 E 6 7 3 4 1013.0 1012.9 0.0
25/12:30am 15.5 14.7 12.8 84 1.5 SSE 9 11 5 6 1013.2 1013.1 0.0
25/12:00am 15.6 15.1 12.7 83 1.6 S 7 9 4 5 1013.5 1013.4 0.0
 
Date/Time
WST
Temp
°C
App
Temp
°C
Dew
Point
°C
Rel
Hum
%
Delta-T
°C
Wind Press
QNH
hPa
Press
MSL
hPa
Rain since
9am
mm
Dir  Spd
km/h
Gust
km/h
Spd
kts
Gust
kts
24/11:30pm 15.9 15.4 12.8 82 1.7 S 7 7 4 4 1013.6 1013.5 0.0
24/11:00pm 16.1 15.4 13.2 83 1.6 S 9 9 5 5 1013.8 1013.7 0.0
24/10:50pm 16.2 15.6 13.5 84 1.5 S 9 11 5 6 1013.7 1013.6 0.0
24/10:32pm 16.5 15.6 13.7 83 1.6 S 11 11 6 6 1013.8 1013.7 0.0
24/10:30pm 16.6 16.1 13.8 83 1.6 S 9 11 5 6 1013.8 1013.7 0.0
24/10:00pm 17.2 16.4 14.0 81 1.8 S 11 13 6 7 1014.1 1014.0 0.0
24/09:30pm 17.4 17.1 14.3 82 1.8 S 9 11 5 6 1014.2 1014.1 0.0
24/09:00pm 18.0 17.6 14.2 78 2.2 SSE 9 11 5 6 1014.3 1014.2 0.0

Latest Capital City Observations: Canberra | Sydney | Melbourne | Brisbane | Adelaide | Perth | Hobart | Darwin

Other Formats:

Comma delimited format used in spreadsheet applications
http://www.bom.gov.au/fwo/IDW60901/IDW60901.94609.axf

JavaScript Object Notation format (JSON) in row-major order
http://www.bom.gov.au/fwo/IDW60901/IDW60901.94609.json